Aeolos — V7PS2 — position and weather

sailwx.info

Track history (hours):
 
Tides and Currents Weather Stations Pressure Air Temp Water Temp Dewpoint Dewpoint Depression Visibility Wind Speed Wind Dir Waves Ship Positions

Aeolos

Last reported at 2017-Mar-27 22:25 UTC. Time now 2017-Mar-28 11:56 UTC.
Position N 37°19' E 024°09'.

Length 172 m; draft 11.2 m.

Type: Cargo ship. MMSI: 538003275.

Date/timePositionNaut miles runAvg speedWind from/ knotsBaromVisibWave heightAir tempDewpointWater temp
2017-Mar-27 22:25N 37°19' E 024°09'1112.7
2017-Mar-27 21:32N 37°27' E 024°19'2512.7
2017-Mar-27 19:33N 37°49' E 024°34'  
2017-Mar-23 14:25N 44°19' E 037°04'1213.2
2017-Mar-23 13:33N 44°24' E 037°19'1413.6
2017-Mar-23 12:30N 44°30' E 037°37'1212.2
2017-Mar-23 11:33N 44°38' E 037°49'6 6.0
2017-Mar-23 10:33N 44°44' E 037°48'0 0.2
2017-Mar-23 09:33N 44°44' E 037°48'0 0.0
2017-Mar-23 08:33N 44°44' E 037°48'0 0.0
2017-Mar-23 07:33N 44°44' E 037°48'0 0.0
2017-Mar-23 06:33N 44°44' E 037°48'0 0.0
2017-Mar-23 05:33N 44°44' E 037°48'0 0.0
2017-Mar-23 04:33N 44°44' E 037°48'0 0.0
2017-Mar-23 03:33N 44°44' E 037°48'0 0.0
2017-Mar-23 02:33N 44°44' E 037°48'0 0.0
2017-Mar-23 01:33N 44°44' E 037°48'0 0.0
2017-Mar-23 00:33N 44°44' E 037°48'0 0.0
2017-Mar-22 23:33N 44°44' E 037°48'0 0.0
2017-Mar-22 22:33N 44°44' E 037°48'0 0.0
2017-Mar-22 21:33N 44°44' E 037°48'0 0.0
2017-Mar-22 20:33N 44°44' E 037°48'0 0.0
2017-Mar-22 19:33N 44°44' E 037°48'0 0.0
2017-Mar-22 18:33N 44°44' E 037°48'0 0.0
2017-Mar-22 17:33N 44°44' E 037°48'0 0.0
2017-Mar-22 16:33N 44°44' E 037°48'0 0.0
2017-Mar-22 15:33N 44°44' E 037°48'0 0.0
2017-Mar-22 14:33N 44°44' E 037°48'0 0.0
2017-Mar-22 13:32N 44°44' E 037°48'0 0.0
2017-Mar-22 12:32N 44°44' E 037°48'0 0.0
2017-Mar-22 11:32N 44°44' E 037°48'0 0.0
2017-Mar-22 10:32N 44°44' E 037°48'0 0.0
2017-Mar-22 09:32N 44°44' E 037°48'0 0.0
2017-Mar-22 08:32N 44°44' E 037°48'0 0.0
2017-Mar-22 07:32N 44°44' E 037°48'0 0.0
2017-Mar-22 06:32N 44°44' E 037°48'0 0.0
2017-Mar-22 05:32N 44°44' E 037°48'0 0.0
2017-Mar-22 04:32N 44°44' E 037°48'0 0.0
2017-Mar-22 03:32N 44°44' E 037°48'0 0.0
2017-Mar-22 02:32N 44°44' E 037°48'0 0.0
2017-Mar-22 01:32N 44°44' E 037°48'0 0.0
2017-Mar-22 00:32N 44°44' E 037°48'0 0.0
2017-Mar-21 23:32N 44°44' E 037°48'0 0.0
2017-Mar-21 22:32N 44°44' E 037°48'0 0.0
2017-Mar-21 21:32N 44°44' E 037°48'0 0.0
2017-Mar-21 20:32N 44°44' E 037°48'0 0.0
2017-Mar-21 19:32N 44°44' E 037°48'0 0.0
2017-Mar-21 18:32N 44°44' E 037°48'0 0.0
2017-Mar-21 17:32N 44°44' E 037°48'0 0.0
2017-Mar-21 16:32N 44°44' E 037°48'0 0.0
2017-Mar-21 15:32N 44°44' E 037°48'0 0.0
2017-Mar-21 14:32N 44°44' E 037°48'0 0.0
2017-Mar-21 13:32N 44°44' E 037°48'0 0.0
2017-Mar-21 08:32N 44°44' E 037°48'0 0.0
2017-Mar-21 07:32N 44°44' E 037°48'0 0.0
2017-Mar-21 06:32N 44°44' E 037°48'0 0.0
2017-Mar-21 05:32N 44°44' E 037°48'0 0.0
2017-Mar-21 04:32N 44°44' E 037°48'0 0.0
2017-Mar-21 03:32N 44°44' E 037°48'0 0.0
2017-Mar-21 02:32N 44°44' E 037°48'0 0.0
2017-Mar-21 01:32N 44°44' E 037°48'0 0.0
2017-Mar-21 00:32N 44°44' E 037°48'0 0.0
2017-Mar-20 23:32N 44°44' E 037°48'0 0.0
2017-Mar-20 22:31N 44°44' E 037°48'0 0.0
2017-Mar-20 21:31N 44°44' E 037°48'0 0.0
2017-Mar-20 20:31N 44°44' E 037°48'0 0.0
2017-Mar-20 19:31N 44°44' E 037°48'0 0.0
2017-Mar-20 18:31N 44°44' E 037°48'0 0.0
2017-Mar-20 17:31N 44°44' E 037°48'0 0.0
2017-Mar-20 16:31N 44°44' E 037°48'0 0.0
2017-Mar-20 15:31N 44°44' E 037°48'0 0.0
2017-Mar-20 14:31N 44°44' E 037°48'0 0.0
2017-Mar-20 13:31N 44°44' E 037°48'3 2.7
2017-Mar-20 12:34N 44°42' E 037°49'7 7.2
2017-Mar-20 11:33N 44°34' E 037°52'1010.4
2017-Mar-20 10:33N 44°28' E 037°40'1512.3
2017-Mar-20 09:20N 44°16' E 037°27'8 0.9
2017-Mar-20 01:07N 44°23' E 037°24'611.5
2017-Mar-20 00:33N 44°26' E 037°32'1 1.3
2017-Mar-19 23:33N 44°27' E 037°34'2 2.0
2017-Mar-19 22:33N 44°25' E 037°33'5 2.0
2017-Mar-19 20:14N 44°21' E 037°31'2 2.2
2017-Mar-19 19:31N 44°19' E 037°30'5 5.5
2017-Mar-19 18:32N 44°21' E 037°23'11 2.1
2017-Mar-19 13:07N 44°25' E 037°09'3 2.9
2017-Mar-19 12:10N 44°24' E 037°12'2 2.7
2017-Mar-19 11:33N 44°23' E 037°14'3 2.8
2017-Mar-19 10:32N 44°22' E 037°17'3 2.6
2017-Mar-19 09:33N 44°20' E 037°20'2 2.0
2017-Mar-19 08:26N 44°19' E 037°23'1010.3
2017-Mar-19 07:30N 44°28' E 037°20'5 5.6
2017-Mar-19 06:33N 44°33' E 037°17'2 2.4
2017-Mar-19 05:31N 44°31' E 037°16'3 2.4
2017-Mar-19 04:16N 44°28' E 037°14'7 0.3
2017-Mar-18 05:16N 44°23' E 037°08'1 1.7
2017-Mar-18 04:33N 44°24' E 037°09'4 1.3
2017-Mar-18 01:18N 44°24' E 037°15'1 1.0
2017-Mar-18 00:33N 44°24' E 037°16'  
Track history (hours):
 
Tides and Currents Weather Stations Pressure Air Temp Water Temp Dewpoint Dewpoint Depression Visibility Wind Speed Wind Dir Waves Ship Positions

Aeolos

Last reported at 2017-Mar-27 22:25 UTC. Time now 2017-Mar-28 11:56 UTC.
Position N 37°19' E 024°09'.

Length 172 m; draft 11.2 m.

Type: Cargo ship. MMSI: 538003275.

Date/timePositionNaut miles runAvg speedWind from/ knotsBaromVisibWave heightAir tempDewpointWater temp
2017-Mar-27 22:25N 37°19' E 024°09'1112.7
2017-Mar-27 21:32N 37°27' E 024°19'2512.7
2017-Mar-27 19:33N 37°49' E 024°34'  
2017-Mar-23 14:25N 44°19' E 037°04'1213.2
2017-Mar-23 13:33N 44°24' E 037°19'1413.6
2017-Mar-23 12:30N 44°30' E 037°37'1212.2
2017-Mar-23 11:33N 44°38' E 037°49'6 6.0
2017-Mar-23 10:33N 44°44' E 037°48'0 0.2
2017-Mar-23 09:33N 44°44' E 037°48'0 0.0
2017-Mar-23 08:33N 44°44' E 037°48'0 0.0
2017-Mar-23 07:33N 44°44' E 037°48'0 0.0
2017-Mar-23 06:33N 44°44' E 037°48'0 0.0
2017-Mar-23 05:33N 44°44' E 037°48'0 0.0
2017-Mar-23 04:33N 44°44' E 037°48'0 0.0
2017-Mar-23 03:33N 44°44' E 037°48'0 0.0
2017-Mar-23 02:33N 44°44' E 037°48'0 0.0
2017-Mar-23 01:33N 44°44' E 037°48'0 0.0
2017-Mar-23 00:33N 44°44' E 037°48'0 0.0
2017-Mar-22 23:33N 44°44' E 037°48'0 0.0
2017-Mar-22 22:33N 44°44' E 037°48'0 0.0
2017-Mar-22 21:33N 44°44' E 037°48'0 0.0
2017-Mar-22 20:33N 44°44' E 037°48'0 0.0
2017-Mar-22 19:33N 44°44' E 037°48'0 0.0
2017-Mar-22 18:33N 44°44' E 037°48'0 0.0
2017-Mar-22 17:33N 44°44' E 037°48'0 0.0
2017-Mar-22 16:33N 44°44' E 037°48'0 0.0
2017-Mar-22 15:33N 44°44' E 037°48'0 0.0
2017-Mar-22 14:33N 44°44' E 037°48'0 0.0
2017-Mar-22 13:32N 44°44' E 037°48'0 0.0
2017-Mar-22 12:32N 44°44' E 037°48'0 0.0
2017-Mar-22 11:32N 44°44' E 037°48'0 0.0
2017-Mar-22 10:32N 44°44' E 037°48'0 0.0
2017-Mar-22 09:32N 44°44' E 037°48'0 0.0
2017-Mar-22 08:32N 44°44' E 037°48'0 0.0
2017-Mar-22 07:32N 44°44' E 037°48'0 0.0
2017-Mar-22 06:32N 44°44' E 037°48'0 0.0
2017-Mar-22 05:32N 44°44' E 037°48'0 0.0
2017-Mar-22 04:32N 44°44' E 037°48'0 0.0
2017-Mar-22 03:32N 44°44' E 037°48'0 0.0
2017-Mar-22 02:32N 44°44' E 037°48'0 0.0
2017-Mar-22 01:32N 44°44' E 037°48'0 0.0
2017-Mar-22 00:32N 44°44' E 037°48'0 0.0
2017-Mar-21 23:32N 44°44' E 037°48'0 0.0
2017-Mar-21 22:32N 44°44' E 037°48'0 0.0
2017-Mar-21 21:32N 44°44' E 037°48'0 0.0
2017-Mar-21 20:32N 44°44' E 037°48'0 0.0
2017-Mar-21 19:32N 44°44' E 037°48'0 0.0
2017-Mar-21 18:32N 44°44' E 037°48'0 0.0
2017-Mar-21 17:32N 44°44' E 037°48'0 0.0
2017-Mar-21 16:32N 44°44' E 037°48'0 0.0
2017-Mar-21 15:32N 44°44' E 037°48'0 0.0
2017-Mar-21 14:32N 44°44' E 037°48'0 0.0
2017-Mar-21 13:32N 44°44' E 037°48'0 0.0
2017-Mar-21 08:32N 44°44' E 037°48'0 0.0
2017-Mar-21 07:32N 44°44' E 037°48'0 0.0
2017-Mar-21 06:32N 44°44' E 037°48'0 0.0
2017-Mar-21 05:32N 44°44' E 037°48'0 0.0
2017-Mar-21 04:32N 44°44' E 037°48'0 0.0
2017-Mar-21 03:32N 44°44' E 037°48'0 0.0
2017-Mar-21 02:32N 44°44' E 037°48'0 0.0
2017-Mar-21 01:32N 44°44' E 037°48'0 0.0
2017-Mar-21 00:32N 44°44' E 037°48'0 0.0
2017-Mar-20 23:32N 44°44' E 037°48'0 0.0
2017-Mar-20 22:31N 44°44' E 037°48'0 0.0
2017-Mar-20 21:31N 44°44' E 037°48'0 0.0
2017-Mar-20 20:31N 44°44' E 037°48'0 0.0
2017-Mar-20 19:31N 44°44' E 037°48'0 0.0
2017-Mar-20 18:31N 44°44' E 037°48'0 0.0
2017-Mar-20 17:31N 44°44' E 037°48'0 0.0
2017-Mar-20 16:31N 44°44' E 037°48'0 0.0
2017-Mar-20 15:31N 44°44' E 037°48'0 0.0
2017-Mar-20 14:31N 44°44' E 037°48'0 0.0
2017-Mar-20 13:31N 44°44' E 037°48'3 2.7
2017-Mar-20 12:34N 44°42' E 037°49'7 7.2
2017-Mar-20 11:33N 44°34' E 037°52'1010.4
2017-Mar-20 10:33N 44°28' E 037°40'1512.3
2017-Mar-20 09:20N 44°16' E 037°27'8 0.9
2017-Mar-20 01:07N 44°23' E 037°24'611.5
2017-Mar-20 00:33N 44°26' E 037°32'1 1.3
2017-Mar-19 23:33N 44°27' E 037°34'2 2.0
2017-Mar-19 22:33N 44°25' E 037°33'5 2.0
2017-Mar-19 20:14N 44°21' E 037°31'2 2.2
2017-Mar-19 19:31N 44°19' E 037°30'5 5.5
2017-Mar-19 18:32N 44°21' E 037°23'11 2.1
2017-Mar-19 13:07N 44°25' E 037°09'3 2.9
2017-Mar-19 12:10N 44°24' E 037°12'2 2.7
2017-Mar-19 11:33N 44°23' E 037°14'3 2.8
2017-Mar-19 10:32N 44°22' E 037°17'3 2.6
2017-Mar-19 09:33N 44°20' E 037°20'2 2.0
2017-Mar-19 08:26N 44°19' E 037°23'1010.3
2017-Mar-19 07:30N 44°28' E 037°20'5 5.6
2017-Mar-19 06:33N 44°33' E 037°17'2 2.4
2017-Mar-19 05:31N 44°31' E 037°16'3 2.4
2017-Mar-19 04:16N 44°28' E 037°14'7 0.3
2017-Mar-18 05:16N 44°23' E 037°08'1 1.7
2017-Mar-18 04:33N 44°24' E 037°09'4 1.3
2017-Mar-18 01:18N 44°24' E 037°15'1 1.0
2017-Mar-18 00:33N 44°24' E 037°16'  

Dump ship's entire track history